createdAt,value
2023-01-18T00:02:10.112Z,10.90
2023-01-18T00:04:37.317Z,10.83
2023-01-18T00:07:04.575Z,11.23
2023-01-18T00:09:31.836Z,11.73
2023-01-18T00:11:58.939Z,11.63
2023-01-18T00:14:26.089Z,10.87
2023-01-18T00:16:53.207Z,11.73
2023-01-18T00:19:20.339Z,11.50
2023-01-18T00:21:47.460Z,12.03
2023-01-18T00:24:15.035Z,15.97
2023-01-18T00:26:43.107Z,13.27
2023-01-18T00:29:10.476Z,11.33
2023-01-18T00:31:37.916Z,12.67
2023-01-18T00:34:05.601Z,11.47
2023-01-18T00:36:33.050Z,12.00
2023-01-18T00:39:00.726Z,14.00
2023-01-18T00:41:28.024Z,12.50
2023-01-18T00:43:55.427Z,11.37
2023-01-18T00:46:23.898Z,11.40
2023-01-18T00:48:51.727Z,10.13
2023-01-18T00:51:20.311Z,10.20
2023-01-18T00:53:47.556Z,11.00
2023-01-18T00:56:16.345Z,11.10
2023-01-18T00:58:43.466Z,10.50
2023-01-18T01:01:10.867Z,10.83
2023-01-18T01:03:57.210Z,10.97
2023-01-18T01:06:45.643Z,11.13
2023-01-18T01:09:14.607Z,11.07
2023-01-18T01:12:01.683Z,10.50
2023-01-18T01:14:47.612Z,10.60
2023-01-18T01:17:33.783Z,10.43
2023-01-18T01:20:20.083Z,11.23
2023-01-18T01:23:05.734Z,11.93
2023-01-18T01:25:51.755Z,11.87
2023-01-18T01:28:18.990Z,12.00
2023-01-18T01:30:46.171Z,12.47
2023-01-18T01:33:13.478Z,12.80
2023-01-18T01:35:40.631Z,11.40
2023-01-18T01:38:10.233Z,11.93
2023-01-18T01:40:37.415Z,11.67
2023-01-18T01:43:04.582Z,12.87
2023-01-18T01:45:32.777Z,12.47
2023-01-18T01:48:00.181Z,11.60
2023-01-18T01:50:29.259Z,11.73
2023-01-18T01:52:57.077Z,12.20
2023-01-18T01:55:31.703Z,12.17
2023-01-18T01:58:21.528Z,10.63
2023-01-18T02:00:48.814Z,11.83
2023-01-18T02:03:20.800Z,11.67
2023-01-18T02:05:49.387Z,12.73
2023-01-18T02:08:22.304Z,12.47
2023-01-18T02:10:50.338Z,12.47
2023-01-18T02:13:18.159Z,12.20
2023-01-18T02:15:50.013Z,11.83
2023-01-18T02:18:30.206Z,12.53
2023-01-18T02:21:17.719Z,11.77
2023-01-18T02:23:50.659Z,12.40
2023-01-18T02:26:32.959Z,11.93
2023-01-18T02:29:06.374Z,12.80
2023-01-18T02:31:42.192Z,11.80
2023-01-18T02:34:22.249Z,12.60
2023-01-18T02:36:58.363Z,11.20
2023-01-18T02:39:38.196Z,11.87
2023-01-18T02:42:44.350Z,12.90
2023-01-18T02:45:39.476Z,12.20
2023-01-18T02:48:10.681Z,12.73
2023-01-18T02:50:37.903Z,13.17
2023-01-18T02:53:05.002Z,11.70
2023-01-18T02:55:50.966Z,12.63
2023-01-18T02:58:25.075Z,12.30
2023-01-18T03:00:55.688Z,11.93
2023-01-18T03:03:23.866Z,12.50
2023-01-18T03:05:52.103Z,12.83
2023-01-18T03:08:22.471Z,12.20
2023-01-18T03:10:56.648Z,12.63
2023-01-18T03:13:31.435Z,12.43
2023-01-18T03:16:04.795Z,14.43
2023-01-18T03:19:03.040Z,13.00
2023-01-18T03:21:42.281Z,12.00
2023-01-18T03:24:11.181Z,13.33
2023-01-18T03:26:41.419Z,13.40
2023-01-18T03:29:31.794Z,13.03
2023-01-18T03:32:17.776Z,12.77
2023-01-18T03:35:00.312Z,12.17
2023-01-18T03:37:27.383Z,12.97
2023-01-18T03:39:57.257Z,11.97
2023-01-18T03:42:26.930Z,12.43
2023-01-18T03:44:54.011Z,12.40
2023-01-18T03:47:21.292Z,12.00
2023-01-18T03:49:48.946Z,13.00
2023-01-18T03:52:21.728Z,12.10
2023-01-18T03:54:57.646Z,13.43
2023-01-18T03:57:30.579Z,12.40
2023-01-18T03:59:58.029Z,11.57
2023-01-18T04:02:27.075Z,13.10
2023-01-18T04:05:02.267Z,13.23
2023-01-18T04:07:29.841Z,12.43
2023-01-18T04:09:56.951Z,12.63
2023-01-18T04:12:24.092Z,12.53
2023-01-18T04:14:51.458Z,13.63
2023-01-18T04:17:19.034Z,12.50
2023-01-18T04:19:46.213Z,12.97
2023-01-18T04:22:13.962Z,13.13
2023-01-18T04:24:41.107Z,13.37
2023-01-18T04:27:08.448Z,11.60
2023-01-18T04:29:35.540Z,12.90
2023-01-18T04:32:02.867Z,13.27
2023-01-18T04:34:30.075Z,13.73
2023-01-18T04:36:57.363Z,13.10
2023-01-18T04:39:24.548Z,14.23
2023-01-18T04:41:51.648Z,14.40
2023-01-18T04:44:18.833Z,13.53
2023-01-18T04:46:47.618Z,14.20
2023-01-18T04:49:17.408Z,12.97
2023-01-18T04:51:45.097Z,13.93
2023-01-18T04:54:12.775Z,14.40
2023-01-18T04:56:39.953Z,14.10
2023-01-18T04:59:07.354Z,13.50
2023-01-18T05:01:35.753Z,13.93
2023-01-18T05:04:03.577Z,13.50
2023-01-18T05:06:30.670Z,13.83
2023-01-18T05:08:57.825Z,13.67
2023-01-18T05:11:25.036Z,14.23
2023-01-18T05:13:52.194Z,14.23
2023-01-18T05:16:20.698Z,14.37
2023-01-18T05:18:48.041Z,13.07
2023-01-18T05:21:15.465Z,13.33
2023-01-18T05:23:42.667Z,13.57
2023-01-18T05:26:14.847Z,14.73
2023-01-18T05:28:43.137Z,13.70
2023-01-18T05:31:10.534Z,13.40
2023-01-18T05:33:37.748Z,14.63
2023-01-18T05:36:05.202Z,14.93
2023-01-18T05:38:32.367Z,13.87
2023-01-18T05:40:59.643Z,14.07
2023-01-18T05:43:27.698Z,13.40
2023-01-18T05:45:54.870Z,13.27
2023-01-18T05:48:22.378Z,16.23
2023-01-18T05:50:49.804Z,14.17
2023-01-18T05:53:18.734Z,14.00
2023-01-18T05:55:54.142Z,13.30
2023-01-18T05:58:21.391Z,14.53
2023-01-18T06:00:48.526Z,13.90
2023-01-18T06:03:15.760Z,13.83
2023-01-18T06:05:42.899Z,15.30
2023-01-18T06:08:10.049Z,14.37
2023-01-18T06:10:37.220Z,15.03
2023-01-18T06:13:05.225Z,14.40
2023-01-18T06:15:32.363Z,13.77
2023-01-18T06:18:00.015Z,15.10
2023-01-18T06:20:30.380Z,14.60
2023-01-18T06:22:58.781Z,14.10
2023-01-18T06:25:26.252Z,14.93
2023-01-18T06:27:53.439Z,15.77
2023-01-18T06:30:20.777Z,15.17
2023-01-18T06:32:50.638Z,14.83
2023-01-18T06:35:17.784Z,14.37
2023-01-18T06:37:47.803Z,15.50
2023-01-18T06:40:15.172Z,16.37
2023-01-18T06:42:42.621Z,15.00
2023-01-18T06:45:10.035Z,15.53
2023-01-18T06:47:37.129Z,14.73
2023-01-18T06:50:04.365Z,16.23
2023-01-18T06:52:33.516Z,15.97
2023-01-18T06:55:00.696Z,16.00
2023-01-18T06:57:27.829Z,17.17
2023-01-18T06:59:54.999Z,16.93
2023-01-18T07:02:22.181Z,15.73
2023-01-18T07:04:49.337Z,17.10
2023-01-18T07:07:16.510Z,16.63
2023-01-18T07:09:43.779Z,16.07
2023-01-18T07:12:10.864Z,16.70
2023-01-18T07:14:37.998Z,20.33
2023-01-18T07:17:05.173Z,17.77
2023-01-18T07:19:32.318Z,16.30
2023-01-18T07:22:00.598Z,15.27
2023-01-18T07:24:28.052Z,15.93
2023-01-18T07:26:55.595Z,16.50
2023-01-18T07:29:23.029Z,16.67
2023-01-18T07:31:50.206Z,15.97
2023-01-18T07:34:17.341Z,16.23
2023-01-18T07:36:44.964Z,16.27
2023-01-18T07:39:12.236Z,17.07
2023-01-18T07:41:39.455Z,16.13
2023-01-18T07:44:10.102Z,14.63
2023-01-18T07:46:37.303Z,16.00
2023-01-18T07:49:05.875Z,15.67
2023-01-18T07:51:34.956Z,16.43
2023-01-18T07:54:02.072Z,16.97
2023-01-18T07:56:29.219Z,17.30
2023-01-18T07:58:56.463Z,17.53
2023-01-18T08:01:24.266Z,16.07
2023-01-18T08:03:51.599Z,16.60
2023-01-18T08:06:24.972Z,16.90
2023-01-18T08:08:52.557Z,17.67
2023-01-18T08:11:20.387Z,18.13
2023-01-18T08:13:49.267Z,18.23
2023-01-18T08:16:17.733Z,18.90
2023-01-18T08:18:45.557Z,20.67
2023-01-18T08:21:13.504Z,19.20
2023-01-18T08:23:41.128Z,18.53
2023-01-18T08:26:09.049Z,19.00
2023-01-18T08:28:36.718Z,18.80
2023-01-18T08:31:08.996Z,18.80
2023-01-18T08:33:40.349Z,19.43
2023-01-18T08:36:10.596Z,19.73
2023-01-18T08:38:37.745Z,20.17
2023-01-18T08:41:04.886Z,18.57
2023-01-18T08:43:32.282Z,18.60
2023-01-18T08:45:59.369Z,18.07
2023-01-18T08:48:26.528Z,19.90
2023-01-18T08:50:53.695Z,19.47
2023-01-18T08:53:20.926Z,21.40
2023-01-18T08:55:48.064Z,20.50
2023-01-18T08:58:15.187Z,19.87
2023-01-18T09:00:50.631Z,18.83
2023-01-18T09:03:22.166Z,19.80
2023-01-18T09:05:49.936Z,20.67
2023-01-18T09:08:17.577Z,19.13
2023-01-18T09:10:45.084Z,20.37
2023-01-18T09:13:12.216Z,19.37
2023-01-18T09:15:39.435Z,20.03
2023-01-18T09:18:08.123Z,19.90
2023-01-18T09:20:36.211Z,20.40
2023-01-18T09:23:07.423Z,20.97
2023-01-18T09:25:36.318Z,19.87
2023-01-18T09:28:04.226Z,20.27
2023-01-18T09:30:31.488Z,19.13
2023-01-18T09:32:59.153Z,20.47
2023-01-18T09:35:26.465Z,22.30
2023-01-18T09:37:54.462Z,20.60
2023-01-18T09:40:23.395Z,21.70
2023-01-18T09:42:52.635Z,20.50
2023-01-18T09:45:29.625Z,20.63
2023-01-18T09:48:05.724Z,20.90
2023-01-18T09:50:35.316Z,21.73
2023-01-18T09:53:16.322Z,20.27
2023-01-18T09:55:49.563Z,22.37
2023-01-18T09:58:28.874Z,21.40
2023-01-18T10:00:58.483Z,21.70
2023-01-18T10:03:45.893Z,21.63
2023-01-18T10:06:16.368Z,21.93
2023-01-18T10:08:43.467Z,20.77
2023-01-18T10:11:20.199Z,22.57
2023-01-18T10:13:51.980Z,25.30
2023-01-18T10:16:20.391Z,20.73
2023-01-18T10:18:53.531Z,21.00
2023-01-18T10:21:27.389Z,19.53
2023-01-18T10:24:13.712Z,20.00
2023-01-18T10:26:42.259Z,20.23
2023-01-18T10:29:15.780Z,20.80
2023-01-18T10:31:48.764Z,21.03
2023-01-18T10:34:20.901Z,20.70
2023-01-18T10:36:53.507Z,21.27
2023-01-18T10:39:32.504Z,20.03
2023-01-18T10:42:01.122Z,20.10
2023-01-18T10:44:28.991Z,19.87
2023-01-18T10:47:00.166Z,19.73
2023-01-18T10:49:37.957Z,20.57
2023-01-18T10:52:18.075Z,21.47
2023-01-18T10:54:52.490Z,19.73
2023-01-18T10:57:22.238Z,20.67
2023-01-18T10:59:51.467Z,21.27
2023-01-18T11:02:38.237Z,19.13
2023-01-18T11:05:25.899Z,19.13
2023-01-18T11:08:21.222Z,19.13
2023-01-18T11:10:58.159Z,20.20
2023-01-18T11:13:42.274Z,19.00
2023-01-18T11:16:09.940Z,17.90
2023-01-18T11:18:37.605Z,18.73
2023-01-18T11:21:09.815Z,17.70
2023-01-18T11:23:37.288Z,17.20
2023-01-18T11:26:14.086Z,17.33
2023-01-18T11:28:44.379Z,16.33
2023-01-18T11:31:15.740Z,16.93
2023-01-18T11:33:50.543Z,15.97
2023-01-18T11:36:19.406Z,16.93
2023-01-18T11:38:46.791Z,16.03
2023-01-18T11:41:20.931Z,16.83
2023-01-18T11:43:51.221Z,16.57
2023-01-18T11:46:37.245Z,17.70
2023-01-18T11:49:07.346Z,16.07
2023-01-18T11:51:43.600Z,15.90
2023-01-18T11:54:11.981Z,15.20
2023-01-18T11:56:41.991Z,15.43
2023-01-18T11:59:16.447Z,16.20
2023-01-18T12:01:52.084Z,17.67
2023-01-18T12:04:51.096Z,15.90
2023-01-18T12:07:37.158Z,15.87
2023-01-18T12:10:07.391Z,15.67
2023-01-18T12:12:52.657Z,16.03
2023-01-18T12:15:30.131Z,16.53
2023-01-18T12:18:13.358Z,15.97
2023-01-18T12:20:48.321Z,15.30
2023-01-18T12:23:26.761Z,14.63
2023-01-18T12:26:06.870Z,13.63
2023-01-18T12:28:41.415Z,14.03
2023-01-18T12:31:35.604Z,13.53
2023-01-18T12:34:10.399Z,14.50
2023-01-18T12:36:45.296Z,13.67
2023-01-18T12:39:30.192Z,13.03
2023-01-18T12:42:05.663Z,12.90
2023-01-18T12:44:32.720Z,12.60
2023-01-18T12:46:59.805Z,13.47
2023-01-18T12:49:29.307Z,13.17
2023-01-18T12:52:12.916Z,13.33
2023-01-18T12:54:46.616Z,13.30
2023-01-18T12:57:14.802Z,12.13
2023-01-18T12:59:45.984Z,11.53
2023-01-18T13:02:22.375Z,11.97
2023-01-18T13:04:57.371Z,13.83
2023-01-18T13:07:31.438Z,12.40
2023-01-18T13:09:58.579Z,11.93
2023-01-18T13:12:26.419Z,11.90
2023-01-18T13:15:00.784Z,12.13
2023-01-18T13:17:40.321Z,10.60
2023-01-18T13:20:12.808Z,11.00
2023-01-18T13:23:03.255Z,11.20
2023-01-18T13:25:36.345Z,10.17
2023-01-18T13:28:05.607Z,10.23
2023-01-18T13:30:35.032Z,9.97
2023-01-18T13:33:12.454Z,9.87
2023-01-18T13:35:49.808Z,9.73
2023-01-18T13:38:27.497Z,8.70
2023-01-18T13:41:01.278Z,9.40
2023-01-18T13:43:37.441Z,7.73
2023-01-18T13:46:04.583Z,6.97
2023-01-18T13:48:50.933Z,7.60
2023-01-18T13:51:30.140Z,6.87
2023-01-18T13:53:57.254Z,6.40
2023-01-18T13:56:26.451Z,6.60
2023-01-18T13:59:14.323Z,9.77
2023-01-18T14:01:45.429Z,8.33
2023-01-18T14:04:24.690Z,9.67
2023-01-18T14:06:52.321Z,9.67
2023-01-18T14:09:20.836Z,8.37
2023-01-18T14:11:53.309Z,9.03
2023-01-18T14:14:20.403Z,7.50
2023-01-18T14:17:06.215Z,8.20
2023-01-18T14:19:59.719Z,8.03
2023-01-18T14:22:52.978Z,7.13
2023-01-18T14:25:46.193Z,6.70
2023-01-18T14:28:19.311Z,6.30
2023-01-18T14:30:47.139Z,5.83
2023-01-18T14:33:16.217Z,6.80
2023-01-18T14:35:53.452Z,6.10
2023-01-18T14:38:21.062Z,6.80
2023-01-18T14:40:50.324Z,6.70
2023-01-18T14:43:28.507Z,6.97
2023-01-18T14:46:01.063Z,6.83
2023-01-18T14:48:30.802Z,5.57
2023-01-18T14:50:59.584Z,6.73
2023-01-18T14:53:30.066Z,7.07
2023-01-18T14:56:06.049Z,6.87
2023-01-18T14:58:40.000Z,6.40
2023-01-18T15:01:09.192Z,6.80
2023-01-18T15:03:36.404Z,6.10
2023-01-18T15:06:18.220Z,6.80
2023-01-18T15:08:47.001Z,6.77
2023-01-18T15:11:14.196Z,7.23
2023-01-18T15:13:49.143Z,8.50
2023-01-18T15:16:20.170Z,7.63
2023-01-18T15:18:52.136Z,7.60
2023-01-18T15:21:27.428Z,8.70
2023-01-18T15:24:04.713Z,7.30
2023-01-18T15:26:40.682Z,7.93
2023-01-18T15:29:18.602Z,8.20
2023-01-18T15:31:57.908Z,7.07
2023-01-18T15:34:35.399Z,7.73
2023-01-18T15:37:05.458Z,7.70
2023-01-18T15:39:33.037Z,7.20
2023-01-18T15:42:06.488Z,7.50
2023-01-18T15:44:42.345Z,7.63
2023-01-18T15:47:28.890Z,7.93
2023-01-18T15:50:01.151Z,7.67
2023-01-18T15:52:46.648Z,8.20
2023-01-18T15:55:27.783Z,8.23
2023-01-18T15:57:58.781Z,8.23
2023-01-18T16:00:52.536Z,9.00
2023-01-18T16:03:21.333Z,8.83
2023-01-18T16:06:03.031Z,8.60
2023-01-18T16:08:31.320Z,8.50
2023-01-18T16:10:58.532Z,8.83
2023-01-18T16:13:32.962Z,11.30
2023-01-18T16:16:18.206Z,10.65
2023-01-18T16:19:06.321Z,8.80
2023-01-18T16:21:41.839Z,7.77
2023-01-18T16:24:16.234Z,7.50
2023-01-18T16:26:44.253Z,7.33
2023-01-18T16:29:11.993Z,7.57
2023-01-18T16:31:41.161Z,7.60
2023-01-18T16:34:27.040Z,6.93
2023-01-18T16:36:54.823Z,7.10
2023-01-18T16:39:24.381Z,7.40
2023-01-18T16:41:53.225Z,6.63
2023-01-18T16:44:21.316Z,7.20
2023-01-18T16:46:49.197Z,8.00
2023-01-18T16:49:16.655Z,7.63
2023-01-18T16:51:43.818Z,7.80
2023-01-18T16:54:11.017Z,11.27
2023-01-18T16:56:39.793Z,7.93
2023-01-18T16:59:15.420Z,7.53
2023-01-18T17:01:42.647Z,7.33
2023-01-18T17:04:11.602Z,6.73
2023-01-18T17:06:39.211Z,6.40
2023-01-18T17:09:26.138Z,6.60
2023-01-18T17:11:53.532Z,6.83
2023-01-18T17:14:21.336Z,6.70
2023-01-18T17:16:49.177Z,7.00
2023-01-18T17:19:17.422Z,8.13
2023-01-18T17:21:46.921Z,6.77
2023-01-18T17:24:14.712Z,7.27
2023-01-18T17:26:42.689Z,6.97
2023-01-18T17:29:10.391Z,6.47
2023-01-18T17:31:48.069Z,6.73
2023-01-18T17:34:26.478Z,7.10
2023-01-18T17:36:55.799Z,6.87
2023-01-18T17:39:24.973Z,6.73
2023-01-18T17:41:59.160Z,7.53
2023-01-18T17:44:36.876Z,6.37
2023-01-18T17:47:04.435Z,6.77
2023-01-18T17:49:32.193Z,6.00
2023-01-18T17:51:59.291Z,6.63
2023-01-18T17:54:26.435Z,7.33
2023-01-18T17:56:53.550Z,6.23
2023-01-18T17:59:20.822Z,6.70
2023-01-18T18:01:48.007Z,6.60
2023-01-18T18:04:15.311Z,6.57
2023-01-18T18:06:49.753Z,6.90
2023-01-18T18:09:21.219Z,6.60
2023-01-18T18:11:48.370Z,6.53
2023-01-18T18:14:16.987Z,6.23
2023-01-18T18:16:44.775Z,6.17
2023-01-18T18:19:15.272Z,7.13
2023-01-18T18:21:42.940Z,7.23
2023-01-18T18:24:10.135Z,6.40
2023-01-18T18:26:37.297Z,7.07
2023-01-18T18:29:04.423Z,7.00
2023-01-18T18:31:31.632Z,6.50
2023-01-18T18:33:58.830Z,5.87
2023-01-18T18:36:27.403Z,6.57
2023-01-18T18:38:54.788Z,6.00
2023-01-18T18:41:21.933Z,6.03
2023-01-18T18:43:49.063Z,7.63
2023-01-18T18:46:16.282Z,7.17
2023-01-18T18:48:43.686Z,6.40
2023-01-18T18:51:11.165Z,6.93
2023-01-18T18:53:39.480Z,6.63
2023-01-18T18:56:12.006Z,7.93
2023-01-18T18:58:39.986Z,7.93
2023-01-18T19:01:07.818Z,7.90
2023-01-18T19:03:36.091Z,7.70
2023-01-18T19:06:03.197Z,8.03
2023-01-18T19:08:31.045Z,7.83
2023-01-18T19:10:58.331Z,8.13
2023-01-18T19:13:25.455Z,8.70
2023-01-18T19:15:52.875Z,8.63
2023-01-18T19:18:20.139Z,8.40
2023-01-18T19:20:47.239Z,9.00
2023-01-18T19:23:14.373Z,9.13
2023-01-18T19:25:41.579Z,8.80
2023-01-18T19:28:08.743Z,9.53
2023-01-18T19:30:38.371Z,9.63
2023-01-18T19:33:05.860Z,8.87
2023-01-18T19:35:39.767Z,8.33
2023-01-18T19:38:07.905Z,9.97
2023-01-18T19:40:35.286Z,12.43
2023-01-18T19:43:02.808Z,8.63
2023-01-18T19:45:30.997Z,8.47
2023-01-18T19:47:59.619Z,9.93
2023-01-18T19:50:28.197Z,9.83
2023-01-18T19:52:55.430Z,10.53
2023-01-18T19:55:22.894Z,9.40
2023-01-18T19:57:52.150Z,9.93
2023-01-18T20:00:19.547Z,9.27
2023-01-18T20:02:46.777Z,10.17
2023-01-18T20:05:14.078Z,9.43
2023-01-18T20:07:41.270Z,9.53
2023-01-18T20:10:08.561Z,9.13
2023-01-18T20:12:35.752Z,10.07
2023-01-18T20:15:03.344Z,9.93
2023-01-18T20:17:30.462Z,9.53
2023-01-18T20:19:57.631Z,9.70
2023-01-18T20:22:25.023Z,9.33
2023-01-18T20:24:52.224Z,8.90
2023-01-18T20:27:22.178Z,8.90
2023-01-18T20:29:49.528Z,9.07
2023-01-18T20:32:17.920Z,8.93
2023-01-18T20:34:51.419Z,7.77
2023-01-18T20:37:18.663Z,8.77
2023-01-18T20:39:45.839Z,9.90
2023-01-18T20:42:13.018Z,9.20
2023-01-18T20:44:43.259Z,10.47
2023-01-18T20:47:10.798Z,9.70
2023-01-18T20:49:40.211Z,8.63
2023-01-18T20:52:07.822Z,8.73
2023-01-18T20:54:38.128Z,8.63
2023-01-18T20:57:05.902Z,8.30
2023-01-18T20:59:33.269Z,8.50
2023-01-18T21:02:00.658Z,7.60
2023-01-18T21:04:27.935Z,8.37
2023-01-18T21:06:57.177Z,7.90
2023-01-18T21:09:25.023Z,8.47
2023-01-18T21:11:52.172Z,8.13
2023-01-18T21:14:19.315Z,8.67
2023-01-18T21:16:46.948Z,8.67
2023-01-18T21:19:14.411Z,8.27
2023-01-18T21:21:41.554Z,8.53
2023-01-18T21:24:08.775Z,9.67
2023-01-18T21:26:37.702Z,9.20
2023-01-18T21:29:05.868Z,8.33
2023-01-18T21:31:33.082Z,8.70
2023-01-18T21:34:00.374Z,9.23
2023-01-18T21:36:30.359Z,9.37
2023-01-18T21:38:57.578Z,8.90
2023-01-18T21:41:43.298Z,8.80
2023-01-18T21:44:30.969Z,9.00
2023-01-18T21:46:58.967Z,8.60
2023-01-18T21:50:15.458Z,9.87
2023-01-18T21:52:51.021Z,9.93
2023-01-18T21:55:18.434Z,9.40
2023-01-18T21:57:45.572Z,8.83
2023-01-18T22:00:13.047Z,9.37
2023-01-18T22:02:42.407Z,10.10
2023-01-18T22:05:09.856Z,9.53
2023-01-18T22:07:36.974Z,9.13
2023-01-18T22:10:06.634Z,9.20
2023-01-18T22:12:35.818Z,9.50
2023-01-18T22:15:04.462Z,10.20
2023-01-18T22:17:31.808Z,9.70
2023-01-18T22:19:59.758Z,10.00
2023-01-18T22:22:26.895Z,8.77
2023-01-18T22:24:54.204Z,9.97
2023-01-18T22:27:21.379Z,10.67
2023-01-18T22:29:48.941Z,11.23
2023-01-18T22:32:16.536Z,11.33
2023-01-18T22:34:43.717Z,11.73
2023-01-18T22:37:11.079Z,11.97
2023-01-18T22:39:38.262Z,11.83
2023-01-18T22:42:05.475Z,11.73
2023-01-18T22:44:32.866Z,13.10
2023-01-18T22:47:00.215Z,12.07
2023-01-18T22:49:27.494Z,13.13
2023-01-18T22:51:54.717Z,13.07
2023-01-18T22:54:22.939Z,11.70
2023-01-18T22:56:50.115Z,11.73
2023-01-18T22:59:17.532Z,12.97
2023-01-18T23:01:45.091Z,13.00
2023-01-18T23:04:12.290Z,13.57
2023-01-18T23:06:45.753Z,13.80
2023-01-18T23:09:14.341Z,12.77
2023-01-18T23:11:41.539Z,13.53
2023-01-18T23:14:27.450Z,13.60
2023-01-18T23:17:13.471Z,12.67
2023-01-18T23:19:40.534Z,12.90
2023-01-18T23:22:07.747Z,13.10
2023-01-18T23:24:35.769Z,13.07
2023-01-18T23:27:03.462Z,13.57
2023-01-18T23:29:30.677Z,12.83
2023-01-18T23:31:58.424Z,12.47
2023-01-18T23:34:26.027Z,12.60
2023-01-18T23:36:53.390Z,12.13
2023-01-18T23:39:39.505Z,12.87
2023-01-18T23:42:25.720Z,11.93
2023-01-18T23:45:11.814Z,11.90
2023-01-18T23:47:58.710Z,12.30
2023-01-18T23:50:44.560Z,12.70
2023-01-18T23:53:31.075Z,12.53
2023-01-18T23:55:58.455Z,12.43
2023-01-18T23:58:25.707Z,13.80
